createdAt,value
2019-03-12T00:00:33.870Z,49.60
2019-03-12T00:03:04.022Z,49.70
2019-03-12T00:05:34.446Z,49.80
2019-03-12T00:08:04.504Z,49.70
2019-03-12T00:10:34.683Z,49.50
2019-03-12T00:13:04.790Z,49.70
2019-03-12T00:15:34.965Z,49.80
2019-03-12T00:18:05.565Z,50.60
2019-03-12T00:20:35.616Z,49.60
2019-03-12T00:23:05.789Z,49.60
2019-03-12T00:25:35.810Z,49.40
2019-03-12T00:28:05.850Z,49.60
2019-03-12T00:30:36.028Z,49.80
2019-03-12T00:33:07.023Z,49.80
2019-03-12T00:35:37.515Z,49.90
2019-03-12T00:38:07.541Z,50.00
2019-03-12T00:40:37.598Z,49.60
2019-03-12T00:43:07.702Z,49.50
2019-03-12T00:45:37.851Z,49.60
2019-03-12T00:48:08.420Z,49.60
2019-03-12T00:50:38.870Z,49.40
2019-03-12T00:53:08.994Z,49.60
2019-03-12T00:55:39.522Z,49.90
2019-03-12T00:58:09.925Z,49.60
2019-03-12T01:00:39.996Z,49.40
2019-03-12T01:03:10.186Z,49.40
2019-03-12T01:05:40.938Z,49.40
2019-03-12T01:08:11.470Z,49.40
2019-03-12T01:10:41.504Z,49.30
2019-03-12T01:13:15.798Z,49.60
2019-03-12T01:15:45.826Z,49.80
2019-03-12T01:18:15.918Z,50.00
2019-03-12T01:20:46.404Z,50.20
2019-03-12T01:23:16.829Z,50.50
2019-03-12T01:25:46.951Z,50.70
2019-03-12T01:28:17.827Z,50.30
2019-03-12T01:30:47.952Z,50.40
2019-03-12T01:33:18.046Z,50.70
2019-03-12T01:35:48.191Z,50.60
2019-03-12T01:38:18.402Z,50.30
2019-03-12T01:40:48.524Z,50.60
2019-03-12T01:43:18.839Z,50.50
2019-03-12T01:45:49.471Z,50.40
2019-03-12T01:48:19.600Z,50.40
2019-03-12T01:50:49.723Z,50.60
2019-03-12T01:53:19.828Z,50.80
2019-03-12T01:55:49.977Z,50.40
2019-03-12T01:58:20.067Z,50.50
2019-03-12T02:00:50.238Z,50.60
2019-03-12T02:03:20.258Z,50.30
2019-03-12T02:05:50.732Z,50.20
2019-03-12T02:08:21.184Z,50.70
2019-03-12T02:10:51.243Z,50.50
2019-03-12T02:13:21.351Z,50.20
2019-03-12T02:15:51.726Z,49.70
2019-03-12T02:18:21.959Z,50.00
2019-03-12T02:20:51.982Z,49.90
2019-03-12T02:23:22.120Z,50.00
2019-03-12T02:25:52.175Z,49.60
2019-03-12T02:28:22.241Z,49.50
2019-03-12T02:30:52.287Z,49.50
2019-03-12T02:33:22.846Z,49.40
2019-03-12T02:35:53.330Z,49.40
2019-03-12T02:38:23.809Z,49.30
2019-03-12T02:40:54.017Z,49.60
2019-03-12T02:43:24.678Z,49.20
2019-03-12T02:45:54.810Z,48.80
2019-03-12T02:48:25.010Z,49.20
2019-03-12T02:50:55.724Z,49.10
2019-03-12T02:53:25.914Z,48.90
2019-03-12T02:55:55.975Z,49.40
2019-03-12T02:58:26.472Z,49.10
2019-03-12T03:00:56.937Z,49.60
2019-03-12T03:03:27.440Z,49.50
2019-03-12T03:06:07.400Z,49.10
2019-03-12T03:08:37.469Z,49.00
2019-03-12T03:11:07.669Z,49.20
2019-03-12T03:13:37.869Z,49.10
2019-03-12T03:16:08.293Z,49.10
2019-03-12T03:18:38.451Z,49.40
2019-03-12T03:21:08.914Z,49.30
2019-03-12T03:23:39.247Z,49.40
2019-03-12T03:26:09.410Z,49.20
2019-03-12T03:28:39.940Z,49.50
2019-03-12T03:31:10.178Z,49.10
2019-03-12T03:33:40.623Z,49.30
2019-03-12T03:36:10.715Z,49.00
2019-03-12T03:38:40.791Z,49.10
2019-03-12T03:41:10.952Z,49.10
2019-03-12T03:43:41.366Z,49.40
2019-03-12T03:46:12.493Z,49.20
2019-03-12T03:48:42.867Z,49.10
2019-03-12T03:51:13.325Z,49.10
2019-03-12T03:53:43.448Z,49.10
2019-03-12T03:56:13.594Z,49.00
2019-03-12T03:58:43.811Z,49.30
2019-03-12T04:01:14.270Z,49.10
2019-03-12T04:03:44.850Z,49.40
2019-03-12T04:06:15.327Z,49.10
2019-03-12T04:08:45.515Z,49.30
2019-03-12T04:11:16.154Z,49.20
2019-03-12T04:13:46.186Z,49.20
2019-03-12T04:16:16.551Z,49.20
2019-03-12T04:18:47.041Z,49.40
2019-03-12T04:21:17.581Z,49.60
2019-03-12T04:23:47.751Z,49.50
2019-03-12T04:26:17.851Z,49.90
2019-03-12T04:28:48.194Z,49.50
2019-03-12T04:31:18.461Z,49.40
2019-03-12T04:34:07.418Z,49.30
2019-03-12T04:36:37.822Z,49.30
2019-03-12T04:39:08.083Z,49.40
2019-03-12T04:41:39.858Z,49.30
2019-03-12T04:44:09.900Z,49.10
2019-03-12T04:46:40.262Z,49.00
2019-03-12T04:49:10.376Z,49.10
2019-03-12T04:51:40.555Z,49.20
2019-03-12T04:54:10.683Z,49.00
2019-03-12T04:56:40.700Z,49.30
2019-03-12T04:59:10.800Z,49.00
2019-03-12T05:01:40.936Z,49.40
2019-03-12T05:04:11.074Z,49.00
2019-03-12T05:06:41.156Z,48.90
2019-03-12T05:09:11.210Z,49.30
2019-03-12T05:11:41.223Z,48.90
2019-03-12T05:14:33.855Z,48.80
2019-03-12T05:17:11.671Z,49.20
2019-03-12T05:19:43.599Z,49.10
2019-03-12T05:22:14.063Z,48.90
2019-03-12T05:24:44.360Z,49.00
2019-03-12T05:27:14.468Z,49.00
2019-03-12T05:29:44.913Z,48.70
2019-03-12T05:32:15.039Z,49.00
2019-03-12T05:34:45.439Z,48.70
2019-03-12T05:37:15.609Z,48.60
2019-03-12T05:39:46.867Z,49.10
2019-03-12T05:42:17.108Z,49.20
2019-03-12T05:44:47.139Z,48.70
2019-03-12T05:47:17.980Z,48.60
2019-03-12T05:49:48.410Z,48.80
2019-03-12T05:52:20.146Z,49.10
2019-03-12T05:54:50.594Z,48.80
2019-03-12T05:57:20.703Z,48.90
2019-03-12T05:59:51.155Z,48.90
2019-03-12T06:02:21.608Z,48.80
2019-03-12T06:04:51.688Z,48.80
2019-03-12T06:07:21.762Z,49.00
2019-03-12T06:09:52.206Z,49.10
2019-03-12T06:12:22.352Z,48.80
2019-03-12T06:14:52.886Z,49.20
2019-03-12T06:17:23.040Z,48.80
2019-03-12T06:19:53.163Z,49.10
2019-03-12T06:22:23.408Z,48.90
2019-03-12T06:24:54.484Z,48.80
2019-03-12T06:27:25.007Z,49.00
2019-03-12T06:29:56.157Z,48.60
2019-03-12T06:32:33.494Z,48.80
2019-03-12T06:35:13.922Z,48.90
2019-03-12T06:38:01.573Z,48.90
2019-03-12T06:40:59.866Z,49.10
2019-03-12T06:43:40.596Z,49.20
2019-03-12T06:46:28.361Z,49.20
2019-03-12T06:49:18.642Z,48.90
2019-03-12T06:52:06.392Z,49.10
2019-03-12T06:54:54.259Z,49.50
2019-03-12T06:57:46.035Z,49.30
2019-03-12T07:00:47.209Z,49.40
2019-03-12T07:03:54.390Z,49.20
2019-03-12T07:06:43.459Z,49.10
2019-03-12T07:09:24.706Z,48.70
2019-03-12T07:12:17.319Z,48.80
2019-03-12T07:15:10.959Z,49.10
2019-03-12T07:17:52.547Z,48.70
2019-03-12T07:20:31.612Z,49.10
2019-03-12T07:23:17.551Z,48.80
2019-03-12T07:26:02.789Z,48.90
2019-03-12T07:28:54.188Z,48.90
2019-03-12T07:31:30.564Z,48.90
2019-03-12T07:34:36.651Z,48.70
2019-03-12T07:37:41.086Z,48.90
2019-03-12T07:40:29.029Z,48.80
2019-03-12T07:43:05.113Z,49.00
2019-03-12T07:45:44.521Z,48.80
2019-03-12T07:48:34.267Z,49.00
2019-03-12T07:51:38.510Z,48.90
2019-03-12T07:54:26.294Z,48.70
2019-03-12T07:57:24.711Z,48.70
2019-03-12T08:00:09.823Z,48.50
2019-03-12T08:02:52.168Z,49.70
2019-03-12T08:05:33.489Z,48.40
2019-03-12T08:08:22.748Z,48.30
2019-03-12T08:11:17.853Z,48.50
2019-03-12T08:13:55.699Z,48.00
2019-03-12T08:16:53.767Z,47.60
2019-03-12T08:19:46.541Z,48.00
2019-03-12T08:22:36.763Z,47.00
2019-03-12T08:25:19.752Z,47.10
2019-03-12T08:28:12.801Z,46.70
2019-03-12T08:31:16.722Z,46.40
2019-03-12T08:33:53.155Z,47.30
2019-03-12T08:36:40.566Z,45.90
2019-03-12T08:39:41.479Z,46.20
2019-03-12T08:42:33.699Z,45.50
2019-03-12T08:45:15.393Z,45.50
2019-03-12T08:47:55.728Z,45.40
2019-03-12T08:50:53.880Z,44.70
2019-03-12T08:53:45.923Z,44.10
2019-03-12T08:56:46.126Z,44.00
2019-03-12T08:59:34.582Z,44.70
2019-03-12T09:02:29.618Z,44.80
2019-03-12T09:05:22.701Z,45.10
2019-03-12T09:08:11.786Z,44.30
2019-03-12T09:10:58.259Z,44.90
2019-03-12T09:13:47.235Z,44.80
2019-03-12T09:16:36.284Z,45.00
2019-03-12T09:19:26.781Z,44.40
2019-03-12T09:22:15.869Z,45.30
2019-03-12T09:24:58.798Z,44.20
2019-03-12T09:27:53.533Z,43.70
2019-03-12T09:30:39.688Z,43.70
2019-03-12T09:33:17.836Z,43.50
2019-03-12T09:36:05.755Z,42.60
2019-03-12T09:38:46.783Z,43.00
2019-03-12T09:41:23.115Z,43.20
2019-03-12T09:44:02.645Z,43.50
2019-03-12T09:46:40.935Z,42.90
2019-03-12T09:49:30.191Z,44.00
2019-03-12T09:52:15.853Z,42.70
2019-03-12T09:54:56.664Z,42.60
2019-03-12T09:57:48.617Z,42.30
2019-03-12T10:00:31.298Z,41.80
2019-03-12T10:03:19.844Z,42.10
2019-03-12T10:05:57.347Z,42.00
2019-03-12T10:08:49.174Z,43.80
2019-03-12T10:11:33.472Z,42.60
2019-03-12T10:14:21.055Z,42.20
2019-03-12T10:17:10.124Z,42.30
2019-03-12T10:19:48.859Z,41.80
2019-03-12T10:22:57.062Z,41.70
2019-03-12T10:25:46.171Z,42.60
2019-03-12T10:28:33.348Z,41.90
2019-03-12T10:31:22.433Z,42.10
2019-03-12T10:34:00.518Z,41.50
2019-03-12T10:36:42.679Z,41.10
2019-03-12T10:40:01.559Z,41.80
2019-03-12T10:42:49.838Z,41.60
2019-03-12T10:45:30.492Z,41.60
2019-03-12T10:48:00.887Z,40.90
2019-03-12T10:50:31.798Z,41.20
2019-03-12T10:53:02.028Z,41.00
2019-03-12T10:55:32.199Z,40.90
2019-03-12T10:58:02.367Z,40.90
2019-03-12T11:00:33.512Z,40.80
2019-03-12T11:03:04.325Z,40.00
2019-03-12T11:05:45.293Z,41.40
2019-03-12T11:08:06.831Z,40.60
2019-03-12T11:10:37.069Z,40.70
2019-03-12T11:13:07.166Z,40.60
2019-03-12T11:15:37.294Z,40.70
2019-03-12T11:18:08.306Z,40.80
2019-03-12T11:20:38.695Z,40.10
2019-03-12T11:23:09.191Z,40.40
2019-03-12T11:25:39.321Z,39.70
2019-03-12T11:28:09.442Z,40.00
2019-03-12T11:30:39.547Z,41.50
2019-03-12T11:33:10.848Z,40.60
2019-03-12T11:35:41.399Z,41.00
2019-03-12T11:38:11.557Z,41.20
2019-03-12T11:40:42.021Z,40.60
2019-03-12T11:43:12.102Z,40.40
2019-03-12T11:45:43.175Z,40.20
2019-03-12T11:48:13.750Z,40.20
2019-03-12T11:50:43.955Z,39.70
2019-03-12T11:53:14.183Z,40.40
2019-03-12T11:55:44.660Z,40.40
2019-03-12T11:58:14.799Z,39.90
2019-03-12T12:00:49.663Z,40.40
2019-03-12T12:03:20.594Z,40.50
2019-03-12T12:05:51.929Z,41.70
2019-03-12T12:08:22.805Z,40.40
2019-03-12T12:10:53.317Z,39.40
2019-03-12T12:13:23.659Z,38.90
2019-03-12T12:15:54.035Z,41.30
2019-03-12T12:18:25.828Z,39.60
2019-03-12T12:20:55.034Z,40.00
2019-03-12T12:23:25.432Z,39.10
2019-03-12T12:25:55.606Z,41.00
2019-03-12T12:28:25.684Z,41.30
2019-03-12T12:30:56.377Z,39.10
2019-03-12T12:33:27.159Z,39.80
2019-03-12T12:35:58.831Z,40.70
2019-03-12T12:38:28.876Z,39.30
2019-03-12T12:40:59.280Z,38.80
2019-03-12T12:43:29.284Z,39.10
2019-03-12T12:46:00.255Z,39.20
2019-03-12T12:48:30.415Z,39.80
2019-03-12T12:51:03.521Z,39.00
2019-03-12T12:53:33.449Z,41.20
2019-03-12T12:56:03.843Z,40.70
2019-03-12T12:58:33.887Z,40.30
2019-03-12T13:01:04.774Z,39.10
2019-03-12T13:03:34.829Z,40.90
2019-03-12T13:06:05.446Z,39.60
2019-03-12T13:08:36.493Z,40.00
2019-03-12T13:11:06.904Z,39.00
2019-03-12T13:13:37.934Z,38.50
2019-03-12T13:16:08.082Z,38.90
2019-03-12T13:18:38.228Z,38.50
2019-03-12T13:21:09.018Z,39.20
2019-03-12T13:23:39.239Z,39.30
2019-03-12T13:26:10.242Z,40.20
2019-03-12T13:28:40.655Z,41.10
2019-03-12T13:31:10.753Z,40.00
2019-03-12T13:33:41.589Z,39.80
2019-03-12T13:36:17.762Z,40.00
2019-03-12T13:38:48.588Z,40.90
2019-03-12T13:41:19.461Z,39.90
2019-03-12T13:43:49.859Z,39.20
2019-03-12T13:46:20.339Z,39.90
2019-03-12T13:48:51.800Z,39.40
2019-03-12T13:51:22.343Z,41.20
2019-03-12T13:53:54.006Z,42.50
2019-03-12T13:56:24.432Z,41.50
2019-03-12T13:58:54.990Z,42.30
2019-03-12T14:01:25.401Z,40.90
2019-03-12T14:03:55.779Z,40.60
2019-03-12T14:06:25.817Z,40.50
2019-03-12T14:08:55.926Z,39.70
2019-03-12T14:11:26.855Z,39.80
2019-03-12T14:13:57.564Z,40.40
2019-03-12T14:16:27.975Z,37.90
2019-03-12T14:18:57.997Z,38.60
2019-03-12T14:21:28.374Z,39.30
2019-03-12T14:24:00.913Z,38.90
2019-03-12T14:26:31.680Z,41.00
2019-03-12T14:29:02.145Z,40.70
2019-03-12T14:31:32.700Z,38.60
2019-03-12T14:34:03.061Z,36.80
2019-03-12T14:36:33.184Z,36.40
2019-03-12T14:39:05.451Z,36.70
2019-03-12T14:41:37.605Z,36.10
2019-03-12T14:44:07.756Z,37.00
2019-03-12T14:46:38.027Z,36.60
2019-03-12T14:49:08.769Z,36.70
2019-03-12T14:52:04.900Z,38.10
2019-03-12T14:54:36.058Z,37.40
2019-03-12T14:57:06.552Z,36.20
2019-03-12T14:59:37.471Z,36.70
2019-03-12T15:02:07.540Z,37.00
2019-03-12T15:04:37.723Z,36.60
2019-03-12T15:07:08.071Z,37.60
2019-03-12T15:09:38.579Z,36.90
2019-03-12T15:12:11.543Z,37.20
2019-03-12T15:14:39.572Z,36.70
2019-03-12T15:17:09.531Z,37.00
2019-03-12T15:19:40.567Z,36.70
2019-03-12T15:22:11.043Z,35.40
2019-03-12T15:24:41.359Z,35.40
2019-03-12T15:27:11.517Z,35.60
2019-03-12T15:29:41.888Z,37.60
2019-03-12T15:32:12.609Z,36.40
2019-03-12T15:34:43.438Z,38.00
2019-03-12T15:37:13.839Z,37.50
2019-03-12T15:39:43.918Z,37.40
2019-03-12T15:42:14.183Z,38.10
2019-03-12T15:47:38.844Z,36.80
2019-03-12T15:50:10.201Z,38.40
2019-03-12T15:52:40.388Z,39.90
2019-03-12T15:55:10.487Z,38.30
2019-03-12T15:57:40.587Z,38.10
2019-03-12T16:00:11.102Z,37.70
2019-03-12T16:02:41.577Z,38.70
2019-03-12T16:05:11.637Z,38.70
2019-03-12T16:07:41.781Z,39.00
2019-03-12T16:10:13.056Z,38.90
2019-03-12T16:12:43.137Z,38.50
2019-03-12T16:15:13.652Z,40.20
2019-03-12T16:17:43.815Z,41.20
2019-03-12T16:20:13.868Z,41.90
2019-03-12T16:22:44.040Z,43.00
2019-03-12T16:25:14.208Z,42.30
2019-03-12T16:27:44.727Z,43.30
2019-03-12T16:30:15.106Z,42.20
2019-03-12T16:32:45.209Z,43.40
2019-03-12T16:35:15.335Z,44.20
2019-03-12T16:37:45.826Z,42.80
2019-03-12T16:40:16.003Z,43.70
2019-03-12T16:42:46.415Z,44.90
2019-03-12T16:45:16.894Z,45.90
2019-03-12T16:47:46.941Z,45.90
2019-03-12T16:50:17.341Z,45.60
2019-03-12T16:52:47.412Z,44.50
2019-03-12T16:55:19.523Z,45.20
2019-03-12T16:57:49.856Z,46.50
2019-03-12T17:00:20.198Z,45.90
2019-03-12T17:02:50.637Z,45.80
2019-03-12T17:05:20.764Z,44.50
2019-03-12T17:07:50.958Z,45.80
2019-03-12T17:10:21.654Z,45.60
2019-03-12T17:12:52.023Z,44.40
2019-03-12T17:15:22.183Z,43.50
2019-03-12T17:17:52.404Z,44.10
2019-03-12T17:20:22.421Z,45.40
2019-03-12T17:22:52.930Z,45.80
2019-03-12T17:25:23.155Z,45.60
2019-03-12T17:27:55.006Z,46.20
2019-03-12T17:30:25.100Z,46.90
2019-03-12T17:32:55.532Z,46.60
2019-03-12T17:35:26.496Z,47.40
2019-03-12T17:37:57.135Z,45.00
2019-03-12T17:40:27.515Z,45.70
2019-03-12T17:42:58.072Z,46.40
2019-03-12T17:45:28.363Z,47.30
2019-03-12T17:47:58.523Z,47.00
2019-03-12T17:50:28.729Z,46.50
2019-03-12T17:53:00.194Z,47.00
2019-03-12T17:55:30.317Z,46.20
2019-03-12T17:58:00.695Z,44.60
2019-03-12T18:00:31.373Z,44.90
2019-03-12T18:03:02.582Z,46.00
2019-03-12T18:05:33.300Z,44.70
2019-03-12T18:08:04.044Z,43.60
2019-03-12T18:10:34.380Z,44.70
2019-03-12T18:13:05.315Z,44.20
2019-03-12T18:15:36.179Z,44.70
2019-03-12T18:18:06.632Z,44.70
2019-03-12T18:20:37.279Z,46.10
2019-03-12T18:23:07.394Z,46.70
2019-03-12T18:25:38.068Z,46.30
2019-03-12T18:28:09.707Z,46.30
2019-03-12T18:30:39.807Z,45.00
2019-03-12T18:33:09.907Z,45.50
2019-03-12T18:35:40.414Z,44.70
2019-03-12T18:38:10.824Z,45.00
2019-03-12T18:40:41.721Z,44.20
2019-03-12T18:43:14.646Z,45.60
2019-03-12T18:45:44.195Z,45.50
2019-03-12T18:48:14.310Z,45.30
2019-03-12T18:50:45.569Z,45.10
2019-03-12T18:53:15.960Z,45.60
2019-03-12T18:56:08.903Z,44.10
2019-03-12T18:58:39.429Z,44.10
2019-03-12T19:01:10.879Z,44.20
2019-03-12T19:03:41.473Z,44.00
2019-03-12T19:06:11.610Z,44.30
2019-03-12T19:08:48.068Z,44.70
2019-03-12T19:11:15.657Z,44.30
2019-03-12T19:13:45.841Z,44.00
2019-03-12T19:16:17.411Z,43.70
2019-03-12T19:18:47.670Z,44.00
2019-03-12T19:21:17.886Z,43.60
2019-03-12T19:23:48.082Z,43.30
2019-03-12T19:26:18.633Z,42.80
2019-03-12T19:28:48.683Z,43.90
2019-03-12T19:31:44.425Z,42.90
2019-03-12T19:34:20.267Z,43.40
2019-03-12T19:36:50.911Z,43.50
2019-03-12T19:39:21.176Z,42.50
2019-03-12T19:41:52.432Z,42.90
2019-03-12T19:44:22.548Z,42.60
2019-03-12T19:46:53.699Z,43.50
2019-03-12T19:49:26.308Z,43.20
2019-03-12T19:51:57.940Z,43.10
2019-03-12T19:54:28.055Z,43.80
2019-03-12T19:56:58.629Z,44.30
2019-03-12T19:59:29.927Z,43.30
2019-03-12T20:02:01.146Z,43.50
2019-03-12T20:04:31.559Z,43.60
2019-03-12T20:07:03.014Z,42.90
2019-03-12T20:09:51.006Z,42.80
2019-03-12T20:12:57.711Z,42.90
2019-03-12T20:16:21.463Z,43.20
2019-03-12T20:19:28.384Z,43.30
2019-03-12T20:22:46.066Z,43.20
2019-03-12T20:25:51.811Z,43.20
2019-03-12T20:29:04.423Z,43.10
2019-03-12T20:32:09.681Z,42.80
2019-03-12T20:35:15.645Z,42.80
2019-03-12T20:38:24.186Z,42.60
2019-03-12T20:41:30.057Z,42.80
2019-03-12T20:44:50.425Z,42.60
2019-03-12T20:48:11.465Z,43.00
2019-03-12T20:51:17.419Z,43.00
2019-03-12T20:54:29.985Z,43.00
2019-03-12T20:57:35.865Z,42.30
2019-03-12T21:00:48.052Z,42.50
2019-03-12T21:03:45.549Z,42.60
2019-03-12T21:06:55.231Z,42.30
2019-03-12T21:10:21.217Z,42.30
2019-03-12T21:13:50.642Z,42.40
2019-03-12T21:17:00.029Z,42.80
2019-03-12T21:20:23.053Z,42.80
2019-03-12T21:23:17.133Z,42.20
2019-03-12T21:26:22.482Z,42.90
2019-03-12T21:29:43.778Z,42.40
2019-03-12T21:32:15.356Z,41.80
2019-03-12T21:34:45.984Z,42.80
2019-03-12T21:37:16.936Z,42.30
2019-03-12T21:39:55.293Z,42.20
2019-03-12T21:42:19.672Z,42.10
2019-03-12T21:44:51.433Z,42.00
2019-03-12T21:47:21.501Z,42.10
2019-03-12T21:49:52.031Z,42.60
2019-03-12T21:52:22.131Z,42.00
2019-03-12T21:54:52.268Z,42.40
2019-03-12T21:57:22.293Z,41.90
2019-03-12T21:59:52.432Z,42.50
2019-03-12T22:02:22.874Z,42.20
2019-03-12T22:04:53.092Z,42.20
2019-03-12T22:07:23.174Z,42.30
2019-03-12T22:09:53.410Z,41.90
2019-03-12T22:12:23.795Z,42.00
2019-03-12T22:14:54.768Z,42.30
2019-03-12T22:17:24.871Z,42.90
2019-03-12T22:19:55.615Z,42.30
2019-03-12T22:22:51.107Z,42.60
2019-03-12T22:25:21.481Z,43.10
2019-03-12T22:27:51.576Z,42.60
2019-03-12T22:30:23.206Z,42.30
2019-03-12T22:32:53.451Z,42.80
2019-03-12T22:35:24.189Z,42.90
2019-03-12T22:37:54.317Z,42.90
2019-03-12T22:40:25.118Z,42.60
2019-03-12T22:42:56.131Z,42.90
2019-03-12T22:45:26.937Z,42.60
2019-03-12T22:47:57.455Z,42.90
2019-03-12T22:50:27.557Z,43.40
2019-03-12T22:52:58.528Z,43.30
2019-03-12T22:55:28.726Z,43.30
2019-03-12T22:57:59.221Z,43.80
2019-03-12T23:00:47.099Z,43.10
2019-03-12T23:03:35.325Z,43.50
2019-03-12T23:06:23.381Z,43.20
2019-03-12T23:09:11.168Z,43.90
2019-03-12T23:11:43.265Z,43.80
2019-03-12T23:14:15.078Z,43.50
2019-03-12T23:16:45.965Z,43.60
2019-03-12T23:19:16.187Z,43.50
2019-03-12T23:21:46.627Z,43.20
2019-03-12T23:24:17.749Z,43.30
2019-03-12T23:26:49.186Z,43.60
2019-03-12T23:29:19.641Z,44.00
2019-03-12T23:31:51.054Z,45.00
2019-03-12T23:34:22.372Z,44.50
2019-03-12T23:36:52.685Z,45.60
2019-03-12T23:39:23.092Z,45.50
2019-03-12T23:41:53.340Z,46.00
2019-03-12T23:44:23.448Z,46.40
2019-03-12T23:46:53.597Z,46.50
2019-03-12T23:49:24.123Z,46.10
2019-03-12T23:51:54.302Z,46.50
2019-03-12T23:54:24.694Z,46.30
2019-03-12T23:56:54.890Z,46.30
2019-03-12T23:59:24.959Z,45.70
